KFOK/FOK METAR and TAF weather

Enter ICAO airport designator
Station Type Date Time Source
KFOK METAR 2019/10/18 10:53 UTC NOAA

KFOK 181053Z 29010KT 10SMSM FEW200 11/04 A2968


Station Type Date Time Source
KFOK Decoded METAR 2019/10/18 10:53 UTC NOAA

THE GABRESKI AIRPORT, NY, United States (KFOK) 40-51N 072-37W 33M
Oct 18, 2019 - 06:53 AM EDT / 2019.10.18 1053 UTC
Wind: from the WNW (290 degrees) at 12 MPH (10 KT):0
Sky conditions: mostly clear
Temperature: 51 F (11 C)
Dew Point: 39 F (4 C)
Relative Humidity: 61%
Pressure (altimeter): 29.68 in. Hg (1005 hPa)
ob: KFOK 181053Z 29010KT 10SMSM FEW200 11/04 A2968
cycle: 11

Station Type Date Time Source
KFOK TAF UTC NOAA

Error!

Example: see airport list